FMMT Airport Information

Runway Information
Runway 01 Length 7218 ft width 131 ft
Elevation 19 ft Threshold 0 ft Heading 354
Runway 19 Length 7218 ft Width 131 ft
Elevation 22 ft Threshold 0 ft Heading 174
Airport Frequencies
Type A/G Name A/G VOICE Frequency 563.4 MHZ
Type TWR Name TWR Frequency 118.3 MHZ
Airport Navaids
Type VOR Name Toamasina Frequency 113100 KHZ
Type NDB Name Toamasina Frequency 358 KHZ
Airport Weather Information & NOTAM
ADDS - METARS form results

(2218 UTC 25 April 2018)
 
METAR text: FMMT 252200Z 22010KT 9999 VCSH SCT017TCU BKN033 23/21 Q1016
Conditions at: FMMT (TAMATAVE/TOAMASI, KM) observed 2200 UTC 25 April 2018
Temperature: 23.0°C (73°F)
Dewpoint: 21.0°C (70°F) [RH = 89%]
Pressure (altimeter): 30.00 inches Hg (1016.0 mb)
Winds: from the SW (220 degrees) at 12 MPH (10 knots; 5.2 m/s)
Visibility: 6 or more miles (10+ km)
Ceiling: 3300 feet AGL
Clouds: scattered clouds at 1700 feet AGL
broken clouds at 3300 feet AGL
Weather: VCSH  (showers in vicinity)